• Join FlightAware (Why Join?)
  • Login
  • US Flag 
12:07AM EDT


 

Airport Tracker/Info


-or-


 

Live Flight TrackerFlight Track Log ✈ DLH455 ✈ 29-Aug-2013 ✈ KSFO - EDDF / FRA

Flight Track Log - Related Links

Times and Time Zones

All times are in EDT time to prevent confusion due to time zone crossing. See the DLH455 flight status page for this flight to view local times or setup timezone preferences in your user account.

Time Position Orientation Groundspeed Altitude Reporting Facility
EDT Latitude Longitude Course Direction KTS MPH feet Rate Location/Type
06:24PM 37.6210 -122.3760 291° West 141 162  Level FlightAware
06:24PM 37.6262 -122.3870 301° West 170 196 720 Level FlightAware ADS-B
06:24PM 37.6310 -122.3990 297° West 171 197 300 1,500 Climbing FlightAware ADS-B
06:24PM 37.6378 -122.4150 298° West 175 201 800 1,620 Climbing FlightAware ADS-B
06:25PM 37.6444 -122.4310 298° West 175 201 1,300 1,680 Climbing FlightAware ADS-B
06:25PM 37.6513 -122.4490 296° West 175 201 1,900 1,740 Climbing FlightAware ADS-B
06:25PM 37.6554 -122.4600 295° West 183 211 2,200 1,620 Climbing FlightAware ADS-B
06:26PM 37.6645 -122.4820 298° West 196 226 2,800 1,680 Climbing FlightAware ADS-B
06:26PM 37.6712 -122.4980 298° West 196 226 3,300 1,320 Climbing FlightAware ADS-B
06:26PM 37.6865 -122.5270 304° West 205 236 3,800 1,080 Climbing FlightAware ADS-B
06:27PM 37.7270 -122.5530 333° Northwest 266 306 4,600 1,560 Climbing FlightAware
06:27PM 37.7517 -122.5670 336° Northwest 264 304 5,400 2,340 Climbing FlightAware ADS-B
06:28PM 37.7759 -122.5810 335° Northwest 283 326 6,200 2,220 Climbing FlightAware ADS-B
06:28PM 37.8138 -122.5890 351° North 287 330 7,300 1,860 Climbing FlightAware ADS-B
06:29PM 37.8500 -122.5350 50° Northeast 300 345 8,500 1,560 Climbing FlightAware
06:29PM 37.8558 -122.5050 76° East 301 346 8,900 1,020 Climbing FlightAware ADS-B
06:30PM 37.8622 -122.4750 75° East 324 373 9,100 1,620 Climbing FlightAware ADS-B
06:30PM 37.8800 -122.3970 74° East 331 381 10,500 1,860 Climbing FlightAware
06:31PM 37.9120 -122.3440 53° Northeast 339 390 11,500 1,800 Climbing FlightAware
06:31PM 37.9222 -122.3300 47° Northeast 339 390 11,800 1,200 Climbing FlightAware ADS-B
06:31PM 37.9549 -122.2810 50° Northeast 358 412 12,300 780 Climbing FlightAware ADS-B
06:32PM 37.9967 -122.2190 49° Northeast 392 451 12,700 900 Climbing FlightAware ADS-B
06:33PM 38.0660 -122.1170 49° Northeast 421 484 13,700 1,020 Climbing FlightAware ADS-B
06:34PM 38.1177 -122.0400 50° Northeast 421 484 14,400 1,200 Climbing FlightAware ADS-B
06:34PM 38.1607 -121.9760 49° Northeast 421 484 15,200 1,620 Climbing FlightAware ADS-B
06:35PM 38.2105 -121.9020 49° Northeast 448 516 16,300 1,440 Climbing FlightAware ADS-B
06:35PM 38.2630 -121.8230 50° Northeast 454 522 17,100 1,260 Climbing FlightAware
06:36PM 38.2870 -121.7870 50° Northeast 448 516 17,500 1,140 Climbing FlightAware ADS-B
06:36PM 38.3470 -121.6970 50° Northeast 459 528 18,300 1,200 Climbing FlightAware ADS-B
06:37PM 38.4080 -121.6060 49° Northeast 472 543 19,300 1,320 Climbing FlightAware
06:38PM 38.4348 -121.5650 50° Northeast 470 541 19,700 1,200 Climbing FlightAware ADS-B
06:38PM 38.5080 -121.4570 49° Northeast 481 554 20,700 1,140 Climbing FlightAware
06:39PM 38.5630 -121.3800 48° Northeast 485 558 21,400 1,020 Climbing FlightAware
06:40PM 38.6090 -121.3140 48° Northeast 490 564 21,900 1,080 Climbing FlightAware
06:40PM 38.6660 -121.2310 49° Northeast 491 565 22,700 1,080 Climbing FlightAware
06:41PM 38.7220 -121.1510 48° Northeast 497 572 23,300 900 Climbing FlightAware
06:41PM 38.7670 -121.0860 48° Northeast 502 578 23,700 780 Climbing FlightAware
06:42PM 38.8230 -121.0040 49° Northeast 508 585 24,200 900 Climbing FlightAware
06:42PM 38.8780 -120.9240 49° Northeast 510 587 24,800 1,320 Climbing FlightAware
06:43PM 38.9280 -120.8510 49° Northeast 504 580 25,700 1,380 Climbing FlightAware
06:44PM 38.9850 -120.7670 49° Northeast 504 580 26,400 1,260 Climbing FlightAware
06:44PM 39.0430 -120.6830 48° Northeast 499 574 27,300 1,260 Climbing FlightAware
06:45PM 39.0980 -120.6020 49° Northeast 501 577 28,000 1,380 Climbing FlightAware
06:45PM 39.1510 -120.5230 49° Northeast 494 568 29,000 1,500 Climbing FlightAware
06:46PM 39.1990 -120.4530 48° Northeast 493 567 29,700 1,140 Climbing FlightAware
06:47PM 39.2520 -120.3740 49° Northeast 496 571 30,300 1,080 Climbing FlightAware
06:47PM 39.3050 -120.2960 49° Northeast 496 571 31,000 1,020 Climbing FlightAware
06:48PM 39.3560 -120.2190 49° Northeast 499 574 31,500 900 Climbing FlightAware
06:48PM 39.4150 -120.1320 49° Northeast 502 578 32,100 840 Climbing FlightAware
06:49PM 39.4630 -120.0600 49° Northeast 506 582 32,500 480 Climbing FlightAware
06:49PM 39.5210 -119.9720 49° Northeast 515 593 32,700 300 Climbing FlightAware
06:50PM 39.5780 -119.8870 49° Northeast 526 605 32,900 240 Climbing FlightAware
06:51PM 39.6300 -119.8090 49° Northeast 532 612 33,000 60 Climbing FlightAware
06:51PM 39.6870 -119.7220 50° Northeast 537 618 33,000  Level FlightAware
06:52PM 39.7410 -119.6400 49° Northeast 539 620 33,000  Level FlightAware
06:52PM 39.8000 -119.5490 50° Northeast 541 623 33,000  Level FlightAware
06:53PM 39.8580 -119.4620 49° Northeast 541 623 33,000 240 Level FlightAware
06:54PM 39.9170 -119.3720 49° Northeast 542 624 33,300 780 Climbing FlightAware
06:54PM 39.9680 -119.2930 50° Northeast 539 620 33,900 960 Climbing FlightAware
06:55PM 40.0260 -119.2040 50° Northeast 538 619 34,400 780 Climbing FlightAware
06:55PM 40.0840 -119.1140 50° Northeast 538 619 34,900 480 Climbing FlightAware
06:56PM 40.1350 -119.0350 50° Northeast 543 625 35,000 60 Climbing FlightAware
06:56PM 40.1950 -118.9420 50° Northeast 537 618 35,000  Level FlightAware
06:57PM 40.2530 -118.8520 50° Northeast 538 619 35,000  Level FlightAware
06:58PM 40.3030 -118.7730 50° Northeast 542 624 35,000 180 Level FlightAware
06:58PM 40.3530 -118.6950 50° Northeast 544 626 35,200 600 Climbing FlightAware
06:59PM 40.4300 -118.5750 50° Northeast 542 624 35,800 600 Climbing FlightAware
07:00PM 40.4870 -118.4850 50° Northeast 544 626 36,100 300 Climbing FlightAware
07:00PM 40.5450 -118.3930 50° Northeast 547 629 36,200 480 Climbing FlightAware
07:01PM 40.6060 -118.2970 50° Northeast 545 627 36,700 660 Climbing FlightAware
07:01PM 40.6640 -118.2050 50° Northeast 543 625 37,000 240 Climbing FlightAware
07:02PM 40.7090 -118.1340 50° Northeast 543 625 37,000  Level FlightAware
07:03PM 40.7590 -118.0550 50° Northeast 543 625 37,000  Level FlightAware
07:03PM 40.8090 -117.9770 50° Northeast 543 625 37,000  Level FlightAware
07:04PM 40.8590 -117.8970 50° Northeast 543 625 37,000  Level FlightAware
07:04PM 40.9060 -117.8230 50° Northeast 543 625 37,000  Level FlightAware
07:05PM 40.9560 -117.7450 50° Northeast 543 625 37,000  Level FlightAware
07:06PM 41.0720 -117.5470 52° Northeast 553 636 37,000  Level FlightAware
07:06PM 41.1280 -117.4570 50° Northeast 549 632 37,000  Level FlightAware
07:07PM 41.1810 -117.3700 51° Northeast 547 629 37,000  Level FlightAware
07:07PM 41.2380 -117.2760 51° Northeast 549 632 37,000  Level FlightAware
07:08PM 41.2950 -117.1830 51° Northeast 548 631 37,000  Level FlightAware
07:08PM 41.3500 -117.0920 51° Northeast 546 628 37,000  Level FlightAware
07:09PM 41.4090 -116.9940 51° Northeast 546 628 37,000  Level FlightAware
07:10PM 41.4610 -116.9090 51° Northeast 546 628 37,000  Level FlightAware
07:10PM 41.5170 -116.8160 51° Northeast 547 629 37,000  Level FlightAware
07:11PM 41.5750 -116.7190 51° Northeast 548 631 37,000  Level FlightAware
07:11PM 41.6250 -116.6350 51° Northeast 549 632 37,000  Level FlightAware
07:12PM 41.6850 -116.5340 51° Northeast 553 636 37,000  Level FlightAware
07:13PM 41.7360 -116.4480 52° Northeast 554 638 37,000  Level FlightAware
07:13PM 41.7970 -116.3460 51° Northeast 558 642 37,000  Level FlightAware
07:14PM 41.8480 -116.2580 52° Northeast 558 642 37,000  Level FlightAware
07:14PM 41.9050 -116.1620 51° Northeast 557 641 37,000  Level FlightAware
07:15PM 41.9490 -116.0870 52° Northeast 556 640 37,000  Level FlightAware ADS-B
07:15PM 42.0140 -115.9760 52° Northeast 557 641 37,000  Level FlightAware
07:16PM 42.0579 -115.8970 53° Northeast 557 641 37,000  Level FlightAware ADS-B
07:17PM 42.1200 -115.7820 54° Northeast 558 642 37,000  Level FlightAware
07:17PM 42.1790 -115.6740 54° Northeast 562 647 37,000  Level FlightAware
07:18PM 42.2340 -115.5730 54° Northeast 562 647 37,000  Level FlightAware
07:18PM 42.2840 -115.4820 53° Northeast 561 646 37,000  Level FlightAware
07:19PM 42.3380 -115.3820 54° Northeast 563 648 37,000  Level FlightAware
07:20PM 42.3900 -115.2850 54° Northeast 563 648 37,000  Level FlightAware
07:20PM 42.4490 -115.1760 54° Northeast 562 647 37,000  Level FlightAware
07:21PM 42.4970 -115.0860 54° Northeast 565 650 37,000  Level FlightAware
07:21PM 42.5480 -114.9910 54° Northeast 567 652 37,000  Level FlightAware
07:22PM 42.6030 -114.8890 54° Northeast 567 652 37,000  Level FlightAware
07:22PM 42.6610 -114.7790 54° Northeast 566 651 37,000  Level FlightAware
07:23PM 42.7130 -114.6800 54° Northeast 558 642 37,000  Level FlightAware
07:24PM 42.7640 -114.5840 54° Northeast 564 649 37,000  Level FlightAware
07:24PM 42.8170 -114.4840 54° Northeast 564 649 37,000  Level FlightAware
07:25PM 42.8770 -114.3690 55° Northeast 566 651 37,000  Level FlightAware
07:25PM 42.9260 -114.2750 55° Northeast 569 655 37,000  Level FlightAware
07:26PM 42.9760 -114.1780 55° Northeast 568 654 37,000  Level FlightAware
07:27PM 43.0320 -114.0710 54° Northeast 569 655 37,000  Level FlightAware
07:27PM 43.0860 -113.9670 55° Northeast 570 656 37,000  Level FlightAware
07:28PM 43.1350 -113.8710 55° Northeast 568 654 37,000  Level FlightAware
07:28PM 43.1930 -113.7570 55° Northeast 568 654 37,000  Level FlightAware
07:29PM 43.2420 -113.6630 54° Northeast 571 657 37,000  Level FlightAware
07:30PM 43.3140 -113.5200 55° Northeast 571 657 37,000  Level FlightAware
07:30PM 43.3810 -113.3890 55° Northeast 573 659 37,000  Level FlightAware
07:31PM 43.4290 -113.2940 55° Northeast 574 661 37,000  Level FlightAware
07:32PM 43.4850 -113.1840 55° Northeast 575 662 37,000  Level FlightAware
07:32PM 43.5410 -113.0710 56° Northeast 575 662 37,000  Level FlightAware
07:33PM 43.5952 -112.9630 55° Northeast 577 664 37,000  Level FlightAware ADS-B
07:33PM 43.6400 -112.8730 55° Northeast 578 665 37,000  Level FlightAware
07:34PM 43.6651 -112.8220 56° Northeast 578 665 37,000  Level FlightAware ADS-B
07:35PM 43.7360 -112.6850 54° Northeast 578 665 37,000  Level FlightAware
07:35PM 43.8047 -112.5390 57° Northeast 585 673 37,000  Level FlightAware ADS-B
07:36PM 43.8608 -112.4250 56° Northeast 583 671 37,000  Level FlightAware ADS-B
07:36PM 43.9139 -112.3170 56° Northeast 582 670 37,000  Level FlightAware ADS-B
07:37PM 43.9230 -112.3130 18° North 578 665 37,000  Level FlightAware
07:38PM 43.9710 -112.2180 55° Northeast 578 665 37,000  Level FlightAware
07:38PM 44.0200 -112.1220 55° Northeast 578 665 37,000  Level FlightAware
07:39PM 44.0670 -112.0290 55° Northeast 578 665 37,000  Level FlightAware
07:39PM 44.1140 -111.9350 55° Northeast 578 665 37,000  Level FlightAware
07:40PM 44.1600 -111.8420 55° Northeast 578 665 37,000  Level FlightAware
07:41PM 44.2070 -111.7480 55° Northeast 578 665 37,000  Level FlightAware
07:41PM 44.2560 -111.6520 55° Northeast 578 665 37,000  Level FlightAware
07:42PM 44.3030 -111.5590 55° Northeast 578 665 37,000  Level FlightAware
07:42PM 44.3490 -111.4650 56° Northeast 578 665 37,000  Level FlightAware
07:43PM 44.4992 -111.0917 56° Northeast 578 665 37,000  Level Salt Lake Center
07:44PM 44.5967 -110.8833 57° Northeast 578 665 37,000  Level Salt Lake Center
07:45PM 44.6803 -110.7031 57° Northeast 578 665 37,000  Level Salt Lake Center
07:46PM 44.7775 -110.4919 57° Northeast 577 664 37,000  Level Salt Lake Center
07:47PM 44.8608 -110.3108 57° Northeast 578 665 37,000  Level Salt Lake Center
07:48PM 44.9581 -110.0989 57° Northeast 577 664 37,000  Level Salt Lake Center
07:49PM 45.0403 -109.9175 57° Northeast 575 662 37,000  Level Salt Lake Center
07:50PM 45.1292 -109.7322 56° Northeast 576 663 37,000  Level Salt Lake Center
07:51PM 45.2369 -109.5064 56° Northeast 576 663 37,000  Level Salt Lake Center
07:52PM 45.3242 -109.3144 57° Northeast 577 664 37,000  Level Salt Lake Center
07:53PM 45.4108 -109.1267 57° Northeast 567 652 37,000  Level Salt Lake Center
07:54PM 45.4997 -108.9322 57° Northeast 580 667 37,000  Level Salt Lake Center
07:55PM 45.5958 -108.7528 53° Northeast 564 649 37,000  Level Salt Lake Center
07:56PM 45.7031 -108.5864 47° Northeast 566 651 37,000  Level Salt Lake Center
07:57PM 45.8164 -108.4156 46° Northeast 587 676 37,000  Level Salt Lake Center
07:59PM 45.9411 -108.2008 50° Northeast 580 667 37,000  Level Salt Lake Center
08:00PM 46.0419 -108.0219 51° Northeast 575 662 37,000  Level Salt Lake Center
08:01PM 46.1317 -107.8300 56° Northeast 578 665 37,000  Level Salt Lake Center
08:02PM 46.2069 -107.6228 62° Northeast 582 670 37,000  Level Salt Lake Center
08:03PM 46.2831 -107.4153 62° Northeast 584 672 37,000  Level Salt Lake Center
08:04PM 46.3583 -107.2078 62° Northeast 584 672 37,000  Level Salt Lake Center
08:05PM 46.4506 -106.9597 62° Northeast 583 671 37,000  Level Salt Lake Center
08:06PM 46.5247 -106.7508 63° Northeast 583 671 37,000  Level Salt Lake Center
08:07PM 46.5981 -106.5400 63° Northeast 585 673 37,000  Level Salt Lake Center
08:08PM 46.6733 -106.3311 62° Northeast 585 673 37,000  Level Salt Lake Center
08:09PM 46.7467 -106.1208 63° Northeast 583 671 37,000  Level Salt Lake Center
08:10PM 46.8217 -105.9147 62° Northeast 580 667 37,000  Level Salt Lake Center
08:11PM 46.8978 -105.7019 62° Northeast 577 664 37,000  Level Salt Lake Center
08:12PM 46.9800 -105.5028 59° Northeast 576 663 37,000  Level Salt Lake Center
08:13PM 47.0778 -105.2644 59° Northeast 573 659 37,000  Level Salt Lake Center
08:14PM 47.1567 -105.0631 60° Northeast 570 656 37,000  Level Salt Lake Center
08:15PM 47.2361 -104.8644 59° Northeast 567 652 37,000  Level Salt Lake Center
08:16PM 47.3139 -104.6636 60° Northeast 566 651 37,000  Level Salt Lake Center
08:17PM 47.3936 -104.4644 59° Northeast 566 651 37,000  Level Salt Lake Center
08:18PM 47.4733 -104.2633 60° Northeast 567 652 37,000  Level Salt Lake Center
08:19PM 47.5664 -104.0206 60° Northeast 568 654 37,000  Level Salt Lake Center
08:20PM 47.6342 -103.8436 60° Northeast 566 651 37,000  Level Salt Lake Center
08:21PM 47.7181 -103.6228 60° Northeast 549 632 37,000  Level Salt Lake Center
08:22PM 47.8094 -103.3850 60° Northeast 555 639 37,000  Level Salt Lake Center
08:23PM 47.8861 -103.1792 61° Northeast 561 646 37,000  Level Salt Lake Center
08:24PM 47.9622 -102.9753 61° Northeast 564 649 37,000  Level Salt Lake Center
08:25PM 48.0381 -102.7683 61° Northeast 566 651 37,000  Level Salt Lake Center
08:26PM 48.1119 -102.5639 62° Northeast 566 651 37,000  Level Minneapolis Center
08:27PM 48.1856 -102.3569 62° Northeast 566 651 37,000  Level Minneapolis Center
08:28PM 48.2600 -102.1489 62° Northeast 566 651 37,000  Level Minneapolis Center
08:29PM 48.3344 -101.9414 62° Northeast 567 652 37,000  Level Minneapolis Center
08:35PM 48.7390 -100.7810 62° Northeast 555 639 37,000  Level FlightAware
08:36PM 48.7980 -100.6070 63° Northeast 555 639 37,000  Level FlightAware
08:36PM 48.8350 -100.4950 63° Northeast 556 640 37,000  Level FlightAware
08:37PM 48.8720 -100.3840 63° Northeast 554 638 37,000  Level FlightAware
08:37PM 48.9180 -100.2480 63° Northeast 552 635 37,000  Level FlightAware
08:38PM 48.9580 -100.1270 63° Northeast 551 634 37,000  Level FlightAware
08:39PM 49.0000 -100.0030 63° Northeast 548 631 37,000  Level FlightAware
08:39PM 49.0440 -99.8940 58° Northeast 545 627 37,000  Level FlightAware
08:40PM 49.0940 -99.7770 57° Northeast 544 626 37,000  Level FlightAware
08:40PM 49.1390 -99.6680 58° Northeast 543 625 37,000  Level FlightAware
08:41PM 49.1850 -99.5580 57° Northeast 540 621 37,000  Level FlightAware
08:42PM 49.2400 -99.4240 58° Northeast 537 618 37,000  Level FlightAware
08:42PM 49.2910 -99.3010 58° Northeast 536 617 37,000  Level FlightAware
08:43PM 49.3330 -99.2000 57° Northeast 536 617 37,000  Level FlightAware
08:43PM 49.3830 -99.0770 58° Northeast 536 617 37,000  Level FlightAware
08:44PM 49.4300 -98.9610 58° Northeast 538 619 37,000  Level FlightAware
08:45PM 49.4750 -98.8510 58° Northeast 536 617 37,000  Level FlightAware
08:45PM 49.5220 -98.7340 58° Northeast 534 615 37,000  Level FlightAware
08:46PM 49.5670 -98.6220 58° Northeast 532 612 37,000  Level FlightAware
08:46PM 49.6100 -98.5150 58° Northeast 531 611 37,000  Level FlightAware
08:47PM 49.6500 -98.4140 59° Northeast 530 610 37,000  Level FlightAware
08:47PM 49.6960 -98.2990 58° Northeast 530 610 37,000  Level FlightAware
08:48PM 49.7420 -98.1830 58° Northeast 531 611 37,000  Level FlightAware
08:49PM 49.7890 -98.0620 59° Northeast 532 612 37,000  Level FlightAware
08:49PM 49.8370 -97.9410 58° Northeast 530 610 37,000  Level FlightAware
08:50PM 49.8770 -97.8360 59° Northeast 528 608 37,000  Level FlightAware
08:51PM 49.9320 -97.6950 59° Northeast 528 608 37,000  Level FlightAware
08:51PM 49.9830 -97.5640 59° Northeast 530 610 37,000  Level FlightAware
08:52PM 50.0270 -97.4480 59° Northeast 530 610 37,000  Level FlightAware
08:52PM 50.0690 -97.3390 59° Northeast 531 611 37,000  Level FlightAware
08:53PM 50.1080 -97.2370 59° Northeast 531 611 37,000  Level FlightAware
08:54PM 50.1470 -97.1360 59° Northeast 531 611 37,000  Level FlightAware
08:54PM 50.1860 -97.0360 59° Northeast 531 611 37,000  Level FlightAware
08:55PM 50.2240 -96.9350 60° Northeast 531 611 37,000  Level FlightAware
08:55PM 50.2650 -96.8290 59° Northeast 531 611 37,000  Level FlightAware
08:56PM 50.3040 -96.7280 59° Northeast 531 611 37,000  Level FlightAware
08:57PM 50.3440 -96.6240 59° Northeast 531 611 37,000  Level FlightAware
08:57PM 50.3850 -96.5170 59° Northeast 531 611 37,000  Level FlightAware
08:58PM 50.4210 -96.4220 59° Northeast 531 611 37,000  Level FlightAware
08:58PM 50.4610 -96.3180 59° Northeast 531 611 37,000  Level FlightAware
08:59PM 50.5010 -96.2140 59° Northeast 531 611 37,000  Level FlightAware
09:00PM 50.5390 -96.1120 60° Northeast 531 611 37,000  Level FlightAware
09:00PM 50.5780 -96.0110 59° Northeast 531 611 37,000  Level FlightAware
09:01PM 50.6170 -95.9090 59° Northeast 531 611 37,000  Level FlightAware
09:01PM 50.6580 -95.8020 59° Northeast 531 611 37,000  Level FlightAware
09:02PM 50.6960 -95.7000 60° Northeast 531 611 37,000  Level FlightAware
09:03PM 50.7667 -95.2167 60° Northeast 520 598 37,000  Level Winnipeg Center
09:04PM 50.8333 -95.0333 60° Northeast 520 598 37,000  Level Winnipeg Center
09:05PM 50.9000 -94.8167 64° Northeast 520 598 37,000  Level Winnipeg Center
09:06PM 50.9667 -94.6333 60° Northeast 520 598 37,000  Level Winnipeg Center
09:07PM 51.0167 -94.4167 70° East 530 610 37,000  Level Winnipeg Center
09:08PM 51.0833 -94.2000 64° Northeast 530 610 37,000  Level Winnipeg Center
09:09PM 51.1500 -94.0000 62° Northeast 530 610 37,000  Level Winnipeg Center
09:10PM 51.2167 -93.7833 64° Northeast 530 610 37,000  Level Winnipeg Center
09:11PM 51.2833 -93.5667 64° Northeast 530 610 37,000  Level Winnipeg Center
09:12PM 51.3667 -93.3500 58° Northeast 530 610 37,000  Level Winnipeg Center
09:13PM 51.4167 -93.1500 68° East 530 610 37,000  Level Winnipeg Center
09:14PM 51.5000 -92.9333 58° Northeast 540 621 37,000  Level Winnipeg Center
09:15PM 51.5833 -92.7333 56° Northeast 530 610 37,000  Level Winnipeg Center
09:16PM 51.6500 -92.5333 62° Northeast 530 610 37,000  Level Winnipeg Center
09:17PM 51.7333 -92.3167 58° Northeast 530 610 37,000  Level Winnipeg Center
09:18PM 51.7833 -92.1167 68° East 530 610 37,000  Level Winnipeg Center
09:19PM 51.8500 -91.8667 67° East 530 610 37,000  Level Winnipeg Center
09:20PM 51.9000 -91.6500 69° East 540 621 37,000  Level Winnipeg Center
09:21PM 51.9333 -91.4167 77° East 540 621 37,000  Level Winnipeg Center
09:22PM 52.0000 -91.2000 63° Northeast 540 621 37,000  Level Winnipeg Center
09:23PM 52.0500 -90.9667 71° East 540 621 37,000  Level Winnipeg Center
09:24PM 52.0833 -90.7167 78° East 540 621 37,000 120 Level Winnipeg Center
09:25PM 52.1500 -90.5167 61° Northeast 540 621 37,300 300 Climbing Winnipeg Center
09:26PM 52.2000 -90.2667 72° East 550 633 37,600 360 Climbing Winnipeg Center
09:27PM 52.2333 -90.0333 77° East 550 633 38,100 420 Climbing Winnipeg Center
09:28PM 52.2500 -89.7667 84° East 560 644 38,500 420 Climbing Winnipeg Center
09:29PM 52.2667 -89.4667 85° East 550 633 39,000 240 Climbing Edmonton Center
09:30PM 52.3000 -89.2667 75° East 550 633 39,000  Level Winnipeg Center
09:31PM 52.3167 -89.0333 83° East 550 633 39,000  Level Winnipeg Center
09:32PM 52.3667 -88.7833 72° East 560 644 39,000  Level Winnipeg Center
09:33PM 52.4167 -88.5500 71° East 550 633 39,000  Level Winnipeg Center
09:34PM 52.5000 -88.3333 58° Northeast 540 621 39,000  Level Winnipeg Center
09:35PM 52.6000 -88.1333 50° Northeast 540 621 39,000  Level Winnipeg Center
09:36PM 52.6667 -87.8833 66° East 540 621 39,000  Level Edmonton Center
09:37PM 52.7500 -87.6667 58° Northeast 540 621 39,000  Level Edmonton Center
09:38PM 52.8500 -87.4667 50° Northeast 540 621 39,000  Level Edmonton Center
09:39PM 52.9167 -87.2667 61° Northeast 550 633 39,000  Level Edmonton Center
09:40PM 52.9833 -87.0333 65° Northeast 550 633 39,000  Level Edmonton Center
09:41PM 53.0667 -86.7833 61° Northeast 550 633 39,000  Level Edmonton Center
09:42PM 53.1333 -86.5500 64° Northeast 550 633 39,000  Level Edmonton Center
09:43PM 53.2000 -86.3500 61° Northeast 550 633 39,000 -300 Level Edmonton Center
09:44PM 53.2833 -86.1000 61° Northeast 550 633 38,500 -840 Descending Edmonton Center
09:45PM 53.3500 -85.8667 64° Northeast 560 644 37,400 -780 Descending Edmonton Center
09:46PM 53.4167 -85.6333 64° Northeast 570 656 37,000 -240 Descending Edmonton Center
09:47PM 53.4833 -85.3833 66° East 570 656 37,000  Level Edmonton Center
09:48PM 53.5667 -85.1500 59° Northeast 570 656 37,000  Level Edmonton Center
09:49PM 53.6333 -84.9000 66° East 570 656 37,000  Level Edmonton Center
09:50PM 53.7000 -84.6667 64° Northeast 580 667 37,000  Level Edmonton Center
09:51PM 53.7667 -84.4167 66° East 580 667 37,000  Level Edmonton Center
09:52PM 53.8500 -84.1667 60° Northeast 580 667 37,000  Level Edmonton Center
09:53PM 53.9667 -83.9833 43° Northeast 580 667 37,000  Level Montreal Center
09:54PM 54.0333 -83.7500 64° Northeast 580 667 37,000  Level Montreal Center
09:55PM 54.1000 -83.5000 65° Northeast 580 667 37,000  Level Montreal Center
09:56PM 54.1167 -83.1833 85° East 580 667 37,000  Level Edmonton Center
09:57PM 54.1833 -82.9333 65° Northeast 580 667 37,000  Level Edmonton Center
09:58PM 54.2667 -82.6833 60° Northeast 580 667 37,000  Level Edmonton Center
09:59PM 54.3167 -82.4333 71° East 580 667 37,000  Level Edmonton Center
10:00PM 54.4000 -82.1667 62° Northeast 580 667 37,000  Level Edmonton Center
10:01PM 54.4667 -81.9167 65° Northeast 580 667 37,000  Level Edmonton Center
10:02PM 54.5167 -81.6667 71° East 580 667 37,000  Level Edmonton Center
10:03PM 54.5833 -81.4167 65° Northeast 580 667 37,000  Level Edmonton Center
10:04PM 54.7167 -81.2167 41° Northeast 570 656 37,000  Level Montreal Center
10:05PM 54.7667 -80.9833 70° East 580 667 37,000  Level Montreal Center
10:06PM 54.7833 -80.6333 85° East 570 656 37,000  Level Edmonton Center
10:07PM 54.8333 -80.4167 68° East 570 656 37,000  Level Edmonton Center
10:08PM 54.9000 -80.1500 66° East 570 656 37,000  Level Edmonton Center
10:09PM 55.0167 -79.9500 44° Northeast 570 656 37,000  Level Montreal Center
10:10PM 55.0833 -79.6667 68° East 570 656 37,000  Level Montreal Center
10:11PM 55.0833 -79.3667 90° East 570 656 37,000  Level Edmonton Center
10:12PM 55.1500 -79.1500 62° Northeast 570 656 37,000  Level Edmonton Center
10:13PM 55.2167 -78.8833 66° East 570 656 37,000  Level Edmonton Center
10:14PM 55.2667 -78.6167 72° East 560 644 37,000  Level Edmonton Center
10:15PM 55.3333 -78.3833 63° Northeast 560 644 37,000  Level Edmonton Center
10:16PM 55.3833 -78.1167 72° East 560 644 37,000  Level Edmonton Center
10:17PM 55.4500 -77.8833 63° Northeast 560 644 37,000  Level Edmonton Center
10:18PM 55.5000 -77.6167 72° East 560 644 37,000  Level Edmonton Center
10:19PM 55.5500 -77.3833 69° East 560 644 37,000  Level Edmonton Center
10:20PM 55.6167 -77.1000 67° East 560 644 37,000  Level Edmonton Center
10:21PM 55.6667 -76.8667 69° East 550 633 37,000  Level Edmonton Center
10:22PM 55.7167 -76.5667 73° East 550 633 37,000  Level Edmonton Center
10:23PM 55.8333 -76.3833 41° Northeast 550 633 37,000  Level Montreal Center
10:24PM 55.9000 -76.1500 63° Northeast 550 633 37,000  Level Montreal Center
10:25PM 55.9500 -75.8667 72° East 550 633 37,000  Level Montreal Center
10:26PM 56.0000 -75.6000 71° East 550 633 37,000  Level Montreal Center
10:27PM 56.0500 -75.3667 69° East 540 621 37,000  Level Montreal Center
10:28PM 56.1167 -75.1167 64° Northeast 550 633 37,000  Level Montreal Center
10:29PM 56.1667 -74.8500 71° East 540 621 37,000  Level Montreal Center
10:30PM 56.2167 -74.6000 70° East 540 621 37,000  Level Montreal Center
10:31PM 56.2500 -74.3333 77° East 550 633 37,000  Level Montreal Center
10:32PM 56.3000 -74.0833 70° East 550 633 37,000  Level Montreal Center
10:33PM 56.3667 -73.8000 67° East 540 621 37,000  Level Montreal Center
10:34PM 56.4167 -73.5500 70° East 540 621 37,000  Level Montreal Center
10:35PM 56.4500 -73.2833 77° East 550 633 37,000  Level Montreal Center
10:36PM 56.5000 -73.0333 70° East 540 621 37,000  Level Montreal Center
10:37PM 56.5500 -72.7500 72° East 540 621 37,000  Level Montreal Center
10:38PM 56.5833 -72.5000 76° East 540 621 37,000  Level Montreal Center
10:39PM 56.6500 -72.2500 64° Northeast 540 621 37,000  Level Montreal Center
10:40PM 56.7000 -71.9833 71° East 540 621 37,000  Level Montreal Center
10:41PM 56.7333 -71.7000 78° East 550 633 37,000  Level Montreal Center
10:42PM 56.7833 -71.4500 70° East 550 633 37,000  Level Montreal Center
10:43PM 56.8167 -71.2000 76° East 540 621 37,000  Level Montreal Center
10:44PM 56.8500 -70.9167 78° East 540 621 37,000  Level Montreal Center
10:45PM 56.9000 -70.6667 70° East 540 621 37,000  Level Montreal Center
10:46PM 56.9500 -70.3667 73° East 540 621 37,000  Level Montreal Center
10:47PM 57.0000 -70.1167 70° East 540 621 37,000  Level Montreal Center
10:48PM 57.0333 -69.8667 76° East 540 621 37,000  Level Montreal Center
10:49PM 57.0833 -69.6167 70° East 540 621 37,000  Level Montreal Center
10:50PM 57.1333 -69.3500 71° East 540 621 37,000  Level Montreal Center
10:51PM 57.2000 -69.1000 64° Northeast 540 621 37,000  Level Montreal Center
10:52PM 57.2500 -68.8333 71° East 540 621 37,000  Level Montreal Center
10:53PM 57.3000 -68.5667 71° East 540 621 37,000  Level Montreal Center
10:54PM 57.3500 -68.3167 70° East 530 610 37,000  Level Montreal Center
10:55PM 57.4000 -68.0500 71° East 530 610 37,000  Level Montreal Center
10:56PM 57.4500 -67.7833 71° East 540 621 37,000  Level Montreal Center
10:57PM 57.5000 -67.5167 71° East 540 621 37,000  Level Montreal Center
10:58PM 57.5500 -67.2667 69° East 530 610 37,100 360 Climbing Montreal Center
10:59PM 57.6000 -67.0000 71° East 540 621 37,800 420 Climbing Montreal Center
11:00PM 57.6667 -66.7500 63° Northeast 540 621 38,000 60 Climbing Montreal Center
11:01PM 57.7167 -66.5000 69° East 540 621 38,000  Level Montreal Center
11:02PM 57.7667 -66.2333 71° East 540 621 38,000  Level Montreal Center
11:03PM 57.8167 -65.9333 73° East 540 621 38,000  Level Montreal Center
11:04PM 57.8667 -65.6667 70° East 540 621 38,000  Level Montreal Center
11:05PM 57.9000 -65.3833 77° East 540 621 38,000  Level Montreal Center
11:06PM 57.9500 -65.1167 70° East 540 621 38,000  Level Montreal Center
11:07PM 58.0000 -64.8500 70° East 540 621 38,000  Level Montreal Center
11:08PM 58.0500 -64.6167 68° East 530 610 38,000  Level Montreal Center
11:09PM 58.0833 -64.3500 77° East 530 610 38,000  Level Montreal Center
11:10PM 58.1333 -64.0667 71° East 530 610 38,000  Level Montreal Center
11:11PM 58.1667 -63.8000 77° East 530 610 38,000  Level Montreal Center
11:12PM 58.2167 -63.5333 70° East 530 610 38,000  Level Montreal Center
11:13PM 58.2667 -63.2833 69° East 530 610 38,000  Level Montreal Center
11:14PM 58.3000 -63.0167 77° East 530 610 38,000  Level Montreal Center
11:15PM 58.3500 -62.7000 73° East 530 610 38,000  Level Montreal Center
11:16PM 58.4000 -62.4167 71° East 530 610 38,000  Level Montreal Center
11:17PM 58.4167 -62.1500 83° East 540 621 38,000  Level Montreal Center
11:18PM 58.4833 -61.9000 63° Northeast 530 610 38,000  Level Montreal Center
11:19PM 58.5000 -61.6333 83° East 530 610 38,000  Level Montreal Center
11:20PM 58.5333 -61.3500 77° East 530 610 38,000  Level Montreal Center
11:21PM 58.5667 -61.0833 76° East 530 610 38,000  Level Montreal Center
11:22PM 58.6167 -60.8000 71° East 530 610 38,000  Level Montreal Center
11:23PM 58.6500 -60.5167 77° East 530 610 38,000  Level Montreal Center
11:24PM 58.6833 -60.2333 77° East 530 610 38,000  Level Montreal Center
11:25PM 58.7000 -59.9667 83° East 520 598 38,000  Level Montreal Center
11:26PM 58.7167 -59.6667 84° East 520 598 38,000  Level Montreal Center
11:27PM 58.7333 -59.4000 83° East 520 598 38,000  Level Montreal Center
11:28PM 58.7500 -59.1167 83° East 520 598 38,000  Level Montreal Center
11:29PM 58.7667 -58.8500 83° East 530 610 38,000  Level Montreal Center
11:30PM 58.7833 -58.5667 83° East 530 610 38,000  Level Montreal Center
11:31PM 58.7833 -58.3000 90° East 530 610 38,000  Level Montreal Center
11:32PM 58.8167 -58.1667 64° Northeast 540 621 38,000  Level Gander Center
11:33PM 58.8333 -57.8667 84° East 530 610 38,000  Level Gander Center
11:34PM 58.8333 -57.6167 90° East 530 610 38,000  Level Gander Center
11:35PM 58.8667 -57.3167 78° East 530 610 38,000  Level Gander Center
11:36PM 58.8667 -57.0333 90° East 530 610 38,000  Level Gander Center
11:37PM 58.8833 -56.7667 83° East 530 610 38,000  Level Gander Center
11:38PM 58.9000 -56.4833 83° East 520 598 38,000  Level Gander Center
11:39PM 58.9000 -56.1833 90° East 520 598 38,000  Level Gander Center
11:40PM 58.9167 -55.9167 83° East 520 598 38,000  Level Gander Center
11:41PM 58.9333 -55.6333 83° East 520 598 38,000  Level Gander Center
11:42PM 58.9333 -55.3333 90° East 530 610 38,000  Level Gander Center
11:43PM 58.9500 -55.0833 83° East 530 610 38,000  Level Gander Center
11:44PM 58.9667 -54.7833 84° East 530 610 38,000  Level Gander Center
11:45PM 58.9667 -54.4833 90° East 530 610 38,000  Level Gander Center
11:46PM 58.9667 -54.2000 90° East 530 610 38,000  Level Gander Center
11:47PM 58.9667 -53.9333 90° East 530 610 38,000  Level Gander Center
11:48PM 58.9833 -53.6500 83° East 530 610 38,000  Level Gander Center
11:49PM 58.9833 -53.3500 90° East 530 610 38,000  Level Gander Center
11:50PM 58.9833 -53.0833 90° East 520 598 38,000  Level Gander Center
11:51PM 59.0000 -52.6667 85° East 530 610 38,000  Level Gander Center
11:52PM 59.0000 -52.4000 90° East 520 598 38,000  Level Gander Center
11:53PM 59.0000 -52.1167 90° East 520 598 38,000  Level Gander Center
11:54PM 59.0000 -51.8167 90° East 520 598 38,000  Level Gander Center
11:55PM 59.0000 -51.5667 90° East 520 598 38,000  Level Gander Center
11:56PM 59.0000 -51.4000 90° East 520 598 38,000  Level Gander Center
11:57PM 59.0000 -51.1000 90° East 520 598 38,000  Level Gander Center
11:58PM 59.0167 -50.8333 83° East 520 598 38,000  Level Gander Center
11:59PM 59.0167 -50.5500 90° East 520 598 38,000  Level Gander Center
12:00AM 59.0000 -50.2500 96° East 520 598 38,000  Level Gander Center
12:01AM 59.0000 -50.0000 90° East 520 598 38,000  Level Gander Center
12:02AM 59.0000 -49.7000 90° East 530 610 38,000  Level Gander Center
12:04AM 59.0167 -49.1333 86° East 530 610 38,000  Level Gander Center
12:05AM 59.0500 -48.8333 78° East 530 610 38,000  Level Gander Center
12:06AM 59.0500 -48.5667 90° East 530 610 38,000  Level Gander Center
12:07AM 59.0667 -48.2667 84° East 530 610 38,000  Level Gander Center
12:08AM 59.0667 -48.0000 90° East 530 610 38,000  Level Gander Center
12:09AM 59.0667 -47.7167 90° East 540 621 38,000  Level Gander Center
12:10AM 59.0667 -47.4167 90° East 540 621 38,000  Level Gander Center
12:11AM 59.0833 -47.1167 84° East 540 621 38,000  Level Gander Center
12:12AM 59.0833 -46.8500 90° East 530 610 38,000  Level Gander Center
12:13AM 59.0833 -46.5500 90° East 540 621 38,000  Level Gander Center
12:14AM 59.0833 -46.2500 90° East 540 621 38,000  Level Gander Center
12:15AM 59.0833 -45.9833 90° East 530 610 38,000  Level Gander Center
12:16AM 59.0833 -45.6833 90° East 530 610 38,000  Level Gander Center
12:17AM 59.0833 -45.4333 90° East 530 610 38,000  Level Gander Center
12:18AM 59.0833 -45.1333 90° East 530 610 38,000  Level Gander Center
12:19AM 59.1000 -44.8167 84° East 530 610 38,000  Level Gander Center
12:20AM 59.1000 -44.5667 90° East 530 610 38,000  Level Gander Center
12:21AM 59.1000 -44.2667 90° East 530 610 38,000  Level Gander Center
12:22AM 59.1000 -44.0000 90° East 530 610 38,000  Level Gander Center
12:23AM 59.1000 -43.7000 90° East 530 610 38,000  Level Gander Center
12:24AM 59.0833 -43.4000 96° East 540 621 38,000  Level Gander Center
12:25AM 59.0833 -43.1000 90° East 540 621 38,000  Level Gander Center
12:26AM 59.0833 -42.8500 90° East 550 633 38,000  Level Gander Center
12:27AM 59.0667 -42.5500 96° East 550 633 38,000  Level Gander Center
12:28AM 59.0667 -42.2500 90° East 540 621 38,000  Level Gander Center
12:29AM 59.0500 -41.9500 96° East 540 621 38,000  Level Gander Center
12:30AM 59.0500 -41.6667 90° East 540 621 38,000  Level Gander Center
12:31AM 59.0333 -41.3667 96° East 550 633 38,000  Level Gander Center
12:32AM 59.0500 -41.1000 83° East 540 621 38,000  Level Gander Center
12:33AM 59.0333 -40.8000 96° East 540 621 38,000  Level Gander Center
12:34AM 59.0167 -40.5000 96° East 540 621 38,000  Level Gander Center
12:35AM 59.0167 -40.2167 90° East 540 621 38,000  Level Gander Center
12:36AM 59.0000 -39.9500 97° East 540 621 38,000  Level Gander Center
12:37AM 58.9833 -39.6500 96° East 550 633 38,000  Level Gander Center
12:38AM 58.9500 -39.3667 103° East 550 633 38,000  Level Gander Center
12:39AM 58.9500 -39.0833 90° East 550 633 38,000  Level Gander Center
12:40AM 58.9333 -38.7833 96° East 550 633 38,000  Level Gander Center
12:41AM 58.9167 -38.5000 96° East 550 633 38,000  Level Gander Center
12:42AM 58.8833 -38.2167 103° East 540 621 38,000  Level Gander Center
12:43AM 58.8667 -37.9167 96° East 540 621 38,000  Level Gander Center
12:44AM 58.8500 -37.6333 96° East 540 621 38,000  Level Gander Center
12:45AM 58.8167 -37.3333 102° East 540 621 38,000  Level Gander Center
12:46AM 58.7833 -37.0667 103° East 550 633 38,000  Level Gander Center
12:47AM 58.7667 -36.7667 96° East 550 633 38,000  Level Gander Center
12:48AM 58.7500 -36.4833 96° East 550 633 38,000  Level Gander Center
12:49AM 58.7167 -36.2000 103° East 550 633 38,000  Level Gander Center
12:50AM 58.6833 -35.9167 103° East 550 633 38,000  Level Gander Center
12:51AM 58.6667 -35.6333 96° East 550 633 38,000  Level Gander Center
12:52AM 58.6500 -35.3500 96° East 550 633 38,000  Level Gander Center
12:54AM 58.5924 -34.8410 102° East  Level FlightAware Approximate
01:01AM 58.3653 -32.9079 102° East  Level FlightAware Approximate
01:02AM 58.3328 -32.6329 102° East  Level FlightAware Approximate
01:03AM 58.3008 -32.3579 102° East  Level FlightAware Approximate
01:04AM 58.2683 -32.0834 103° East  Level FlightAware Approximate
01:05AM 58.2352 -31.8094 103° East  Level FlightAware Approximate
01:06AM 58.2015 -31.5359 103° East  Level FlightAware Approximate
01:07AM 58.1672 -31.2630 103° East  Level FlightAware Approximate
01:08AM 58.1323 -30.9905 104° East  Level FlightAware Approximate
01:09AM 58.0969 -30.7186 104° East  Level FlightAware Approximate
01:10AM 58.0608 -30.4473 104° East  Level FlightAware Approximate
01:11AM 58.0242 -30.1765 104° East  Level FlightAware Approximate
01:12AM 58.0038 -29.9034 86° East  Level FlightAware Approximate
01:13AM 58.0142 -29.6248 86° East  Level FlightAware Approximate
01:14AM 58.0240 -29.3461 86° East  Level FlightAware Approximate
01:15AM 58.0332 -29.0673 86° East  Level FlightAware Approximate
01:16AM 58.0418 -28.7883 87° East  Level FlightAware Approximate
01:17AM 58.0498 -28.5092 87° East  Level FlightAware Approximate
01:18AM 58.0572 -28.2300 87° East  Level FlightAware Approximate
01:19AM 58.0640 -27.9506 87° East  Level FlightAware Approximate
01:20AM 58.0701 -27.6712 87° East  Level FlightAware Approximate
01:21AM 58.0757 -27.3917 88° East  Level FlightAware Approximate
01:22AM 58.0806 -27.1121 88° East  Level FlightAware Approximate
01:23AM 58.0849 -26.8324 88° East  Level FlightAware Approximate
01:24AM 58.0886 -26.5526 88° East  Level FlightAware Approximate
01:25AM 58.0917 -26.2728 89° East  Level FlightAware Approximate
01:26AM 58.0942 -25.9930 89° East  Level FlightAware Approximate
01:27AM 58.0961 -25.7131 89° East  Level FlightAware Approximate
01:28AM 58.0973 -25.4332 89° East  Level FlightAware Approximate
01:29AM 58.0980 -25.1533 90° East  Level FlightAware Approximate
01:30AM 58.0980 -24.8734 90° East  Level FlightAware Approximate
01:31AM 58.0974 -24.5935 90° East  Level FlightAware Approximate
01:32AM 58.0962 -24.3135 90° East  Level FlightAware Approximate
01:33AM 58.0944 -24.0337 91° East  Level FlightAware Approximate
01:34AM 58.0920 -23.7538 91° East  Level FlightAware Approximate
01:35AM 58.0890 -23.4740 91° East  Level FlightAware Approximate
01:36AM 58.0853 -23.1943 91° East  Level FlightAware Approximate
01:37AM 58.0811 -22.9146 92° East  Level FlightAware Approximate
01:38AM 58.0762 -22.6349 92° East  Level FlightAware Approximate
01:39AM 58.0707 -22.3554 92° East  Level FlightAware Approximate
01:40AM 58.0646 -22.0760 92° East  Level FlightAware Approximate
01:41AM 58.0579 -21.7966 92° East  Level FlightAware Approximate
01:42AM 58.0505 -21.5174 93° East  Level FlightAware Approximate
01:43AM 58.0426 -21.2382 93° East  Level FlightAware Approximate
01:44AM 58.0341 -20.9592 93° East  Level FlightAware Approximate
01:45AM 58.0249 -20.6804 93° East  Level FlightAware Approximate
01:46AM 58.0152 -20.4017 94° East  Level FlightAware Approximate
01:47AM 58.0048 -20.1231 94° East  Level FlightAware Approximate
01:48AM 58.0030 -19.8444 88° East  Level FlightAware Approximate
01:49AM 58.0078 -19.5654 88° East  Level FlightAware Approximate
01:50AM 58.0120 -19.2862 88° East  Level FlightAware Approximate
01:51AM 58.0156 -19.0071 88° East  Level FlightAware Approximate
01:52AM 58.0186 -18.7278 89° East  Level FlightAware Approximate
01:53AM 58.0210 -18.4486 89° East  Level FlightAware Approximate
01:54AM 58.0228 -18.1693 89° East  Level FlightAware Approximate
01:55AM 58.0239 -17.8899 89° East  Level FlightAware Approximate
01:56AM 58.0245 -17.6106 90° East  Level FlightAware Approximate
01:57AM 58.0244 -17.3312 90° East  Level FlightAware Approximate
01:58AM 58.0237 -17.0519 90° East  Level FlightAware Approximate
01:59AM 58.0224 -16.7726 90° East  Level FlightAware Approximate
02:00AM 58.0205 -16.4933 91° East  Level FlightAware Approximate
02:01AM 58.0180 -16.2140 91° East  Level FlightAware Approximate
02:02AM 58.0149 -15.9348 91° East  Level FlightAware Approximate
02:03AM 58.0112 -15.6556 91° East  Level FlightAware Approximate
02:04AM 58.0068 -15.3765 92° East  Level FlightAware Approximate
02:05AM 58.0019 -15.0975 92° East  Level FlightAware Approximate
02:06AM 57.9657 -14.8303 111° Southeast  Level FlightAware Approximate
02:07AM 57.9126 -14.5703 111° Southeast  Level FlightAware Approximate
02:08AM 57.8589 -14.3109 111° Southeast  Level FlightAware Approximate
02:09AM 57.8047 -14.0524 111° Southeast  Level FlightAware Approximate
02:10AM 57.7500 -13.7946 112° Southeast  Level FlightAware Approximate
02:11AM 57.6963 -13.5365 111° Southeast  Level FlightAware Approximate
02:12AM 57.6427 -13.2787 111° Southeast  Level FlightAware Approximate
02:13AM 57.5886 -13.0217 111° Southeast  Level FlightAware Approximate
02:14AM 57.5340 -12.7654 112° Southeast  Level FlightAware Approximate
02:14AM 57.5980 -12.8340 112° Southeast 509 586 38,000  Level FlightAware
02:15AM 57.4788 -12.5099 112° Southeast  Level FlightAware Approximate
02:15AM 57.5720 -12.7040 110° East 508 585 38,000  Level FlightAware
02:16AM 57.5390 -12.5400 110° East 508 585 38,000  Level FlightAware
02:16AM 57.5140 -12.4140 110° East 509 586 38,000  Level FlightAware
02:17AM 57.4860 -12.2740 110° East 507 583 38,000  Level FlightAware
02:17AM 57.4520 -12.1080 111° Southeast 508 585 38,000  Level FlightAware
02:18AM 57.4200 -11.9490 110° East 509 586 38,000  Level FlightAware
02:19AM 57.3900 -11.8030 111° Southeast 509 586 38,000  Level FlightAware
02:19AM 57.3610 -11.6640 111° Southeast 506 582 38,000  Level FlightAware
02:20AM 57.3320 -11.5250 111° Southeast 504 580 38,000  Level FlightAware
02:20AM 57.3010 -11.3790 111° Southeast 506 582 38,000  Level FlightAware
02:21AM 57.2720 -11.2400 111° Southeast 507 583 38,000  Level FlightAware
02:22AM 57.2370 -11.0770 112° Southeast 507 583 38,000  Level FlightAware
02:22AM 57.2020 -10.9140 112° Southeast 507 583 38,000  Level FlightAware
02:23AM 57.1770 -10.7980 112° Southeast 506 582 38,000  Level FlightAware
02:23AM 57.1460 -10.6570 112° Southeast 506 582 38,000  Level FlightAware
02:24AM 57.1100 -10.4940 112° Southeast 510 587 38,000  Level FlightAware
02:25AM 57.0700 -10.3130 112° Southeast 511 588 38,000  Level FlightAware
02:25AM 57.0380 -10.1680 112° Southeast 511 588 38,000  Level FlightAware
02:26AM 57.0060 -10.0270 113° Southeast 514 592 38,000  Level FlightAware
02:27AM 56.9790 -9.8840 109° East 514 592 38,000  Level FlightAware
02:27AM 56.9500 -9.7330 109° East 515 593 38,000  Level FlightAware
02:28AM 56.9220 -9.5930 110° East 518 596 38,000  Level FlightAware
02:28AM 56.8980 -9.4720 110° East 517 595 38,000  Level FlightAware
02:29AM 56.8650 -9.3050 110° East 516 594 38,000  Level FlightAware
02:29AM 56.8360 -9.1600 110° East 515 593 38,000  Level FlightAware
02:30AM 56.8070 -9.0160 110° East 513 590 38,000  Level FlightAware
02:31AM 56.7820 -8.8920 110° East 512 589 38,000  Level FlightAware
02:31AM 56.7785 -8.8750 110° East 474 545 38,000  Level FlightAware UK
02:31AM 56.7537 -8.7514 110° East 474 545 38,000  Level FlightAware UK
02:31AM 56.7540 -8.7530 110° East 514 592 38,000  Level FlightAware
02:32AM 56.7240 -8.6110 111° Southeast 517 595 38,000  Level FlightAware
02:32AM 56.6900 -8.4450 110° East 515 593 38,000  Level FlightAware
02:33AM 56.6600 -8.3020 111° Southeast 514 592 38,000  Level FlightAware
02:34AM 56.6350 -8.1820 111° Southeast 512 589 38,000  Level FlightAware
02:34AM 56.6050 -8.0390 111° Southeast 511 588 38,000  Level FlightAware
02:34AM 56.6018 -8.0235 111° Southeast 476 548 38,000  Level FlightAware UK
02:35AM 56.5761 -7.9033 111° Southeast 476 548 38,000  Level FlightAware UK
02:35AM 56.5670 -7.8610 111° Southeast 509 586 38,000  Level FlightAware
02:36AM 56.5330 -7.7020 111° Southeast 511 588 38,000  Level FlightAware
02:36AM 56.4987 -7.5438 111° Southeast 478 550 38,000  Level FlightAware UK
02:36AM 56.4960 -7.5330 111° Southeast 513 590 38,000  Level FlightAware
02:37AM 56.4650 -7.3900 111° Southeast 512 589 38,000  Level FlightAware
02:37AM 56.4360 -7.2570 111° Southeast 515 593 38,000  Level FlightAware
02:38AM 56.4040 -7.1120 112° Southeast 514 592 38,000  Level FlightAware
02:39AM 56.3720 -6.9720 112° Southeast 515 593 38,000  Level FlightAware
02:39AM 56.3398 -6.8263 112° Southeast 474 545 38,000  Level FlightAware UK
02:39AM 56.3410 -6.8310 112° Southeast 516 594 38,000  Level FlightAware
02:40AM 56.3129 -6.7070 112° Southeast 476 548 38,000  Level FlightAware UK
02:40AM 56.3100 -6.6940 112° Southeast 517 595 38,000  Level FlightAware
02:40AM 56.2790 -6.5570 112° Southeast 517 595 38,000  Level FlightAware
02:41AM 56.2410 -6.3940 113° Southeast 520 598 38,000  Level FlightAware
02:42AM 56.2040 -6.2320 112° Southeast 523 602 38,000  Level FlightAware
02:42AM 56.1754 -6.1089 112° Southeast 478 550 38,000  Level FlightAware UK
02:42AM 56.1720 -6.0940 112° Southeast 524 603 38,000  Level FlightAware
02:43AM 56.1370 -5.9440 113° Southeast 525 604 38,000  Level FlightAware
02:43AM 56.1030 -5.8020 113° Southeast 523 602 38,000  Level FlightAware
02:44AM 56.0628 -5.6305 113° Southeast 476 548 38,000  Level FlightAware UK
02:44AM 56.0620 -5.6280 113° Southeast 522 601 38,000  Level FlightAware
02:45AM 56.0310 -5.4980 113° Southeast 521 600 38,000  Level FlightAware
02:45AM 55.9940 -5.3450 113° Southeast 521 600 38,000  Level FlightAware
02:46AM 55.9520 -5.1720 113° Southeast 521 600 38,000  Level FlightAware
02:46AM 55.9490 -5.1577 113° Southeast 480 552 38,000  Level FlightAware UK
02:47AM 55.9202 -5.0399 113° Southeast 482 555 38,000  Level FlightAware UK
02:47AM 55.9180 -5.0330 113° Southeast 519 597 38,000  Level FlightAware
02:47AM 55.8857 -4.8995 113° Southeast 484 557 38,000  Level FlightAware UK
02:47AM 55.8860 -4.9000 113° Southeast 516 594 38,000  Level FlightAware
02:48AM 55.8470 -4.7430 114° Southeast 508 585 38,000  Level FlightAware
02:48AM 55.8180 -4.6280 114° Southeast 511 588 38,000  Level FlightAware
02:49AM 55.7850 -4.4920 113° Southeast 510 587 38,000  Level FlightAware
02:50AM 55.7460 -4.3410 115° Southeast 508 585 38,000  Level FlightAware
02:50AM 55.7170 -4.2260 114° Southeast 507 583 38,000  Level FlightAware
02:51AM 55.6850 -4.0980 114° Southeast 508 585 38,000  Level FlightAware
02:51AM 55.6450 -3.9420 114° Southeast 514 592 38,000  Level FlightAware
02:52AM 55.6200 -3.8450 114° Southeast 515 593 38,000  Level FlightAware
02:53AM 55.5800 -3.6900 114° Southeast 513 590 38,000  Level FlightAware
02:53AM 55.5460 -3.5600 115° Southeast 511 588 38,000  Level FlightAware
02:54AM 55.5110 -3.4260 115° Southeast 508 585 38,000  Level FlightAware
02:54AM 55.5073 -3.4129 115° Southeast 486 559 38,000  Level FlightAware UK
02:54AM 55.4777 -3.3018 115° Southeast 484 557 38,000  Level FlightAware UK
02:54AM 55.4770 -3.2980 115° Southeast 504 580 38,000  Level FlightAware
02:55AM 55.4410 -3.1640 115° Southeast 502 578 38,000  Level FlightAware
02:56AM 55.4060 -3.0310 115° Southeast 501 577 38,000  Level FlightAware
02:56AM 55.3710 -2.9020 115° Southeast 504 580 38,000  Level FlightAware
02:57AM 55.3340 -2.7660 116° Southeast 508 585 38,000  Level FlightAware
02:57AM 55.3040 -2.6530 115° Southeast 509 586 38,000  Level FlightAware
02:58AM 55.2660 -2.5150 116° Southeast 511 588 38,000  Level FlightAware
02:58AM 55.2310 -2.3880 116° Southeast 507 583 38,000  Level FlightAware
02:59AM 55.1950 -2.2560 115° Southeast 506 582 38,000  Level FlightAware
03:00AM 55.1610 -2.1340 116° Southeast 507 583 38,000  Level FlightAware
03:00AM 55.1240 -2.0030 116° Southeast 507 583 38,000  Level FlightAware
03:01AM 55.0880 -1.8740 116° Southeast 507 583 38,000  Level FlightAware
03:01AM 55.0520 -1.7470 116° Southeast 507 583 38,000  Level FlightAware
03:01AM 55.0458 -1.7256 116° Southeast 480 552 38,000  Level FlightAware UK
03:02AM 55.0160 -1.6180 116° Southeast 509 586 38,000  Level FlightAware
03:02AM 54.9817 -1.4792 116° Southeast 480 552 38,000  Level FlightAware UK
03:03AM 54.9830 -1.4810 116° Southeast 509 586 38,000  Level FlightAware
03:03AM 54.9520 -1.3580 116° Southeast 509 586 38,000  Level FlightAware
03:03AM 54.9483 -1.3444 116° Southeast 478 550 38,000  Level FlightAware UK
03:04AM 54.9194 -1.2327 116° Southeast 478 550 38,000  Level FlightAware UK
03:04AM 54.9180 -1.2280 116° Southeast 510 587 38,000  Level FlightAware
03:04AM 54.8830 -1.0910 114° Southeast 512 589 38,000  Level FlightAware
03:05AM 54.8490 -0.9630 115° Southeast 511 588 38,000  Level FlightAware
03:05AM 54.8170 -0.8400 114° Southeast 511 588 38,000  Level FlightAware
03:06AM 54.7793 -0.6955 114° Southeast 480 552 38,000  Level FlightAware UK
03:06AM 54.7800 -0.6970 114° Southeast 511 588 38,000  Level FlightAware
03:07AM 54.7440 -0.5600 114° Southeast 509 586 38,000  Level FlightAware
03:07AM 54.7120 -0.4410 115° Southeast 507 583 38,000  Level FlightAware
03:08AM 54.6780 -0.3140 115° Southeast 510 587 38,000  Level FlightAware
03:08AM 54.6380 -0.1670 115° Southeast 510 587 38,000  Level FlightAware
03:09AM 54.6040 -0.0420 115° Southeast 510 587 38,000 60 Level FlightAware
03:10AM 54.5710 0.0810 115° Southeast 509 586 38,100 300 Climbing FlightAware
03:10AM 54.5350 0.2130 115° Southeast 508 585 38,400 540 Climbing FlightAware
03:11AM 54.5060 0.3180 115° Southeast 509 586 38,700 600 Climbing FlightAware
03:11AM 54.4780 0.4180 116° Southeast 509 586 39,000 180 Climbing FlightAware
03:12AM 54.4280 0.5980 115° Southeast 506 582 39,000  Level FlightAware
03:12AM 54.3952 0.7148 115° Southeast 480 552 39,000  Level FlightAware UK
03:12AM 54.3940 0.7210 115° Southeast 508 585 39,000  Level FlightAware
03:13AM 54.3550 0.8600 116° Southeast 509 586 39,000  Level FlightAware
03:14AM 54.3220 0.9750 116° Southeast 511 588 39,000  Level FlightAware
03:14AM 54.2840 1.1070 116° Southeast 513 590 39,000  Level FlightAware
03:15AM 54.2450 1.2450 116° Southeast 514 592 39,000  Level FlightAware
03:15AM 54.2080 1.3720 116° Southeast 515 593 39,000  Level FlightAware
03:16AM 54.1710 1.5000 116° Southeast 514 592 39,000  Level FlightAware
03:17AM 54.1330 1.6320 116° Southeast 513 590 39,000  Level FlightAware
03:17AM 54.0970 1.7540 117° Southeast 512 589 39,000  Level FlightAware
03:18AM 54.0631 1.8694 117° Southeast 480 552 39,000  Level FlightAware UK
03:18AM 54.0690 1.8490 117° Southeast 513 590 39,000  Level FlightAware
03:18AM 54.0210 2.0130 116° Southeast 513 590 39,000  Level FlightAware
03:19AM 53.9900 2.1210 116° Southeast 513 590 39,000  Level FlightAware
03:20AM 53.9600 2.2640 110° East 513 590 39,000  Level FlightAware
03:20AM 53.9360 2.3920 108° East 512 589 39,000  Level FlightAware
03:21AM 53.9050 2.5510 108° East 512 589 39,000  Level FlightAware
03:21AM 53.8800 2.6840 108° East 511 588 39,000  Level FlightAware
03:22AM 53.8550 2.8110 108° East 508 585 39,000  Level FlightAware
03:22AM 53.8300 2.9400 108° East 507 583 39,000  Level FlightAware
03:23AM 53.8050 3.0630 109° East 506 582 39,000  Level FlightAware
03:24AM 53.7750 3.1960 111° Southeast 506 582 39,000  Level FlightAware
03:24AM 53.7550 3.2480 123° Southeast 501 577 39,000  Level FlightAware
03:24AM 53.7120 3.3200 135° Southeast 492 566 39,000  Level FlightAware
03:25AM 53.6500 3.4220 136° Southeast 491 565 39,000  Level FlightAware
03:26AM 53.5730 3.5550 134° Southeast 493 567 39,000  Level FlightAware
03:26AM 53.5220 3.6410 135° Southeast 495 570 39,000  Level FlightAware
03:27AM 53.4660 3.7350 135° Southeast 499 574 39,000  Level FlightAware
03:27AM 53.4080 3.8300 136° Southeast 501 577 39,000  Level FlightAware
03:28AM 53.3510 3.9250 135° Southeast 502 578 39,000  Level FlightAware
03:29AM 53.2890 4.0280 135° Southeast 502 578 39,000  Level FlightAware
03:29AM 53.2330 4.1210 135° Southeast 502 578 39,000  Level FlightAware
03:30AM 53.1740 4.2170 136° Southeast 503 579 39,000  Level FlightAware
03:30AM 53.1140 4.3160 135° Southeast 504 580 39,000  Level FlightAware
03:31AM 53.0560 4.4090 136° Southeast 504 580 39,000  Level FlightAware
03:32AM 52.9960 4.5070 135° Southeast 505 581 39,000  Level FlightAware
03:32AM 52.9290 4.6150 136° Southeast 504 580 39,000  Level FlightAware
03:33AM 52.8690 4.7110 136° Southeast 503 579 39,000  Level FlightAware
03:33AM 52.8100 4.8060 136° Southeast 503 579 39,000  Level FlightAware
03:34AM 52.7560 4.8920 136° Southeast 504 580 39,000  Level FlightAware
03:34AM 52.7530 4.8969 136° Southeast 476 548 39,000  Level FlightAware UK
03:35AM 52.6990 4.9830 136° Southeast 504 580 39,000 -300 Level FlightAware
03:35AM 52.6350 5.0840 136° Southeast 505 581 38,700 -780 Descending FlightAware
03:36AM 52.5750 5.1800 136° Southeast 512 589 38,100 -1,020 Descending FlightAware
03:36AM 52.5200 5.2650 137° Southeast 516 594 37,600 -900 Descending FlightAware
03:37AM 52.4590 5.3610 136° Southeast 512 589 37,100 -540 Descending FlightAware
03:38AM 52.3970 5.4588 136° Southeast 472 543 37,000 -180 Descending FlightAware UK
03:38AM 52.3980 5.4560 136° Southeast 512 589 37,000  Level FlightAware
03:38AM 52.3510 5.5280 137° Southeast 511 588 37,000  Level FlightAware
03:39AM 52.2770 5.6430 136° Southeast 512 589 37,000  Level FlightAware
03:39AM 52.2230 5.7260 137° Southeast 512 589 37,000  Level FlightAware
03:40AM 52.1630 5.8180 137° Southeast 511 588 37,000  Level FlightAware
03:40AM 52.0980 5.9170 137° Southeast 511 588 37,000  Level FlightAware
03:41AM 52.0340 6.0140 137° Southeast 512 589 37,000  Level FlightAware
03:42AM 51.9780 6.0990 137° Southeast 511 588 37,000  Level FlightAware
03:42AM 51.9230 6.1830 137° Southeast 511 588 37,000 -540 Level FlightAware
03:43AM 51.8590 6.2780 137° Southeast 513 590 36,400 -1,260 Descending FlightAware
03:43AM 51.7960 6.3740 137° Southeast 514 592 35,500 -1,500 Descending FlightAware
03:44AM 51.7470 6.4460 138° Southeast 517 595 34,800 -1,620 Descending FlightAware
03:45AM 51.6760 6.5520 137° Southeast 520 598 33,700 -1,860 Descending FlightAware
03:45AM 51.6020 6.6610 138° Southeast 509 586 32,300 -2,040 Descending FlightAware
03:46AM 51.5370 6.7580 137° Southeast 496 571 31,000 -2,100 Descending FlightAware
03:46AM 51.4820 6.8380 138° Southeast 491 565 29,900 -2,040 Descending FlightAware
03:47AM 51.4260 6.9210 137° Southeast 474 545 28,700 -2,100 Descending FlightAware
03:48AM 51.3660 7.0080 138° Southeast 464 534 27,400 -1,920 Descending FlightAware
03:48AM 51.3140 7.0800 139° Southeast 455 524 26,600 -1,260 Descending FlightAware
03:49AM 51.2480 7.1420 150° Southeast 451 519 26,000 -540 Descending FlightAware
03:49AM 51.1840 7.2010 150° Southeast 455 524 26,000  Level FlightAware
03:50AM 51.1270 7.2550 149° Southeast 453 521 26,000 -480 Level FlightAware
03:50AM 51.0650 7.3120 150° Southeast 452 520 25,500 -1,020 Descending FlightAware
03:51AM 50.9950 7.3760 150° Southeast 459 528 24,800 -1,260 Descending FlightAware
03:52AM 50.9320 7.4340 150° Southeast 452 520 24,000 -1,740 Descending FlightAware
03:52AM 50.8670 7.4940 150° Southeast 440 506 22,800 -2,100 Descending FlightAware
03:53AM 50.8090 7.5460 150° Southeast 432 497 21,600 -1,980 Descending FlightAware
03:53AM 50.7440 7.6050 150° Southeast 418 481 20,500 -1,800 Descending FlightAware
03:54AM 50.6870 7.6580 149° Southeast 406 467 19,500 -1,920 Descending FlightAware
03:55AM 50.6320 7.7070 151° Southeast 400 460 18,300 -2,280 Descending FlightAware
03:55AM 50.5760 7.7580 150° Southeast 398 458 16,900 -2,040 Descending FlightAware
03:56AM 50.5190 7.8100 150° Southeast 386 444 15,900 -1,860 Descending FlightAware
03:56AM 50.4700 7.8530 151° Southeast 383 441 14,800 -1,800 Descending FlightAware
03:57AM 50.4150 7.9020 150° Southeast 370 426 13,900 -1,200 Descending FlightAware
03:57AM 50.3650 7.9470 150° Southeast 348 400 13,400 -960 Descending FlightAware
03:58AM 50.3180 8.0040 142° Southeast 331 381 12,800 -1,020 Descending FlightAware
03:59AM 50.2790 8.0630 136° Southeast 317 365 12,200 -780 Descending FlightAware
03:59AM 50.2490 8.1080 136° Southeast 295 339 12,000 -480 Descending FlightAware
04:00AM 50.2140 8.1620 135° Southeast 273 314 11,700 -780 Descending FlightAware
04:00AM 50.1830 8.2080 136° Southeast 268 308 11,100 -1,140 Descending FlightAware
04:01AM 50.1510 8.2560 136° Southeast 263 303 10,400 -960 Descending FlightAware
04:02AM 50.1210 8.3020 135° Southeast 259 298 10,000 -480 Descending FlightAware
04:02AM 50.1070 8.3140 151° Southeast 257 296 10,000 -360 Level FlightAware
04:02AM 50.1010 8.3160 168° South 257 296 9,900 -1,380 Descending FlightAware
04:02AM 50.0960 8.3170 173° South 256 295 9,800 -1,200 Descending FlightAware
04:02AM 50.0690 8.2960 207° Southwest 249 287 9,300 -1,320 Descending FlightAware
04:03AM 50.0650 8.2840 243° Southwest 249 287 9,100 -1,080 Descending FlightAware
04:03AM 50.0570 8.2510 249° West 247 284 8,800 -1,080 Descending FlightAware
04:03AM 50.0500 8.2180 252° West 244 281 8,400 -1,200 Descending FlightAware
04:03AM 50.0440 8.1900 252° West 243 280 8,100 -1,260 Descending FlightAware
04:04AM 50.0370 8.1600 250° West 241 277 7,700 -1,200 Descending FlightAware
04:04AM 50.0300 8.1240 253° West 241 277 7,300 -1,200 Descending FlightAware
04:04AM 50.0230 8.0920 251° West 240 276 6,900 -1,140 Descending FlightAware
04:05AM 50.0170 8.0650 251° West 241 277 6,600 -1,140 Descending FlightAware
04:05AM 50.0090 8.0290 251° West 237 273 6,200 -1,200 Descending FlightAware
04:05AM 50.0020 7.9980 251° West 236 272 5,800 -1,200 Descending FlightAware
04:06AM 49.9980 7.9900 232° Southwest 237 273 5,700 -1,140 Descending FlightAware
04:06AM 49.9890 7.9800 216° Southwest 237 273 5,500 -1,320 Descending FlightAware
04:06AM 49.9860 7.9780 203° Southwest 236 272 5,400 -1,020 Descending FlightAware
04:06AM 49.9770 7.9760 188° South 236 272 5,300 -1,080 Descending FlightAware
04:06AM 49.9520 7.9950 154° Southeast 237 273 4,800 -1,020 Descending FlightAware
04:06AM 49.9480 8.0100 113° Southeast 239 275 4,700 -960 Descending FlightAware
04:07AM 49.9440 8.0360 103° East 240 276 4,400 -960 Descending FlightAware
04:07AM 49.9390 8.0740 102° East 239 275 4,100 -600 Descending FlightAware
04:07AM 49.9350 8.1110 100° East 238 274 4,000 -420 Descending FlightAware
04:08AM 49.9340 8.1260 96° East 238 274 3,900 -420 Descending FlightAware
04:08AM 49.9390 8.1620 78° East 238 274 3,800 -180 Descending FlightAware
04:08AM 49.9450 8.1920 73° East 236 272 3,800 -180 Level FlightAware
04:09AM 49.9530 8.2250 69° East 224 258 3,700 -480 Descending FlightAware
04:09AM 49.9600 8.2520 68° East 215 247 3,500 -840 Descending FlightAware
04:09AM 49.9660 8.2780 70° East 209 241 3,200 -720 Descending FlightAware
04:10AM 49.9710 8.3010 71° East 197 227 3,100 -480 Descending FlightAware
04:10AM 49.9780 8.3290 69° East 184 212 2,900 -780 Descending FlightAware
04:10AM 49.9840 8.3510 67° East 180 207 2,600 -960 Descending FlightAware
04:11AM 49.9890 8.3740 71° East 180 207 2,300 -960 Descending FlightAware
04:11AM 49.9940 8.3940 69° East 174 200 2,000 -1,020 Descending FlightAware
04:11AM 49.9960 8.4030 71° East 170 196 1,900 -360 Descending FlightAware
04:12AM 50.0060 8.4460 70° East 152 175 1,700 -840 Descending FlightAware
04:12AM 50.0130 8.4740 69° East 145 167 1,000 -1,500 Descending FlightAware
04:12AM 50.0180 8.4940 69° East 141 162 700 -780 Descending FlightAware
04:13AM 50.0220 8.5120 71° East 139 160 500 -720 Descending FlightAware
04:13AM 50.0280 8.5350 68° East 138 159 200 -660 Descending FlightAware
04:13AM 50.0300 8.5450 73° East 134 154 100 -480 Descending FlightAware
04:22AM 50.0420 8.5620 270° West -60 Descending FlightAware